Skip Navigation Links Skip Navigation Links

Current Weather

Santacruz Apt, Mumbai (Bombay), India

For information only: do not use for flight planning or navigation.
Latest weather
Observation time Monday, March 19, 2018 4:00 PM IST
Local time Monday, March 19, 2018 4:25 PM IST
Flight conditions Marginal Visual Meteorological Conditions
Wind direction Northwest (320°)
Wind speed 10 mph
Visibility 3.1 mi.
Present weather smoke
Sky condition
Ceiling unlimited
Temperature 90°F
Dewpoint 63°F
Altimeter 29.83 in.Hg
Derived measurements
Relative humidity 41%
Heat index 90°F
Density altitude 2361 ft.
No significant changes expected in the next two hours.
METAR VABB 191030Z 32009KT 5000 FU NSC 32/17 Q1010 NOSIG


Location code

InnerDrive.Weather 4.0.6615.0 Release CLR 4.0.30319.42000
Copyright ©2018 Inner Drive Technology. All rights reserved. Portions Copyright ©1986-2018 David Braverman.

Find weather

Site navigation

Skip Navigation Links

Place info

Page info

PayPal - The safer, easier way to pay online!

Return home.

Copyright ©2018 Inner Drive Technology. Purveyors of fine, hand-crafted computer software. Page printed 2018-03-19T10:55:59 UTC.